Portada
METAR-TAF:

METAR-TAF

Aeroports :

Plataforma petroliera

A12-cpp, Països Baixos

latitud: 55-23-57N, longitud: 3-48-37E, altitud: 33 m

Observació

L'informe es va fer fa 23 minuts, a les 09:25 UTC
Vent 23 kt del Oest/Sud-Oest
Temperatura 15°C
Humitat 94%
Pressió 1020 hPa

METAR: EHAK 220925Z AUTO 24023KT //// // FEW003/// SCT014/// BKN020/// 15/14 Q1020 RE// W///H///

Hora: 11:48 (09:48 UTC)


TAF: manca

Observacions i pronòstics meteorològics de més de 4000 aeroports (METAR i TAF).

Les estacions disponibles són els punts grocs i vermells al mapa.

Posi el ratolí al punt desitjat per veure el nom de l'estació.

Feu clic per veure les observacions i els pronòstics meteorològics.

Per canviar el mapa: feu clic els botons verds amb una creu de color negre per apropar; al botó verd amb un guió per allunyar la imatge; o en les fletxes verdes per a mapes adjacents.


METAR-TAF: